createdAt,value
2017-10-15T00:02:16.770Z,5.75
2017-10-15T00:04:45.610Z,5.00
2017-10-15T00:07:13.703Z,5.90
2017-10-15T00:09:41.779Z,5.53
2017-10-15T00:12:09.874Z,7.03
2017-10-15T00:14:38.734Z,4.97
2017-10-15T00:17:06.838Z,5.53
2017-10-15T00:19:35.679Z,4.60
2017-10-15T00:22:03.755Z,4.30
2017-10-15T00:24:31.847Z,5.40
2017-10-15T00:26:59.924Z,5.57
2017-10-15T00:29:28.015Z,5.50
2017-10-15T00:31:56.087Z,5.40
2017-10-15T00:34:24.939Z,5.22
2017-10-15T00:36:53.035Z,4.75
2017-10-15T00:39:21.136Z,5.30
2017-10-15T00:41:49.975Z,5.47
2017-10-15T00:44:18.051Z,5.50
2017-10-15T00:46:46.155Z,5.45
2017-10-15T00:49:14.227Z,4.60
2017-10-15T00:51:42.302Z,5.50
2017-10-15T00:54:11.163Z,5.70
2017-10-15T00:56:39.242Z,5.15
2017-10-15T00:59:07.351Z,6.32
2017-10-15T01:01:36.558Z,5.93
2017-10-15T01:04:04.626Z,5.85
2017-10-15T01:06:32.724Z,5.90
2017-10-15T01:09:01.945Z,6.30
2017-10-15T01:11:30.047Z,7.35
2017-10-15T01:13:58.118Z,5.60
2017-10-15T01:16:26.200Z,6.50
2017-10-15T01:18:55.067Z,5.95
2017-10-15T01:21:23.139Z,6.62
2017-10-15T01:23:51.230Z,6.55
2017-10-15T01:26:19.387Z,6.40
2017-10-15T01:28:47.458Z,5.45
2017-10-15T01:31:15.531Z,5.18
2017-10-15T01:33:43.639Z,5.80
2017-10-15T01:36:11.710Z,5.50
2017-10-15T01:38:39.787Z,6.43
2017-10-15T01:41:07.876Z,6.93
2017-10-15T01:43:35.955Z,8.50
2017-10-15T01:46:04.053Z,7.37
2017-10-15T01:48:32.555Z,8.52
2017-10-15T01:51:00.626Z,5.85
2017-10-15T01:53:28.699Z,6.30
2017-10-15T01:55:56.806Z,7.25
2017-10-15T01:58:24.879Z,7.10
2017-10-15T02:00:52.955Z,6.90
2017-10-15T02:03:21.054Z,6.65
2017-10-15T02:05:49.127Z,6.40
2017-10-15T02:08:17.223Z,7.35
2017-10-15T02:10:45.318Z,6.65
2017-10-15T02:13:14.166Z,6.50
2017-10-15T02:15:42.238Z,6.15
2017-10-15T02:18:10.335Z,6.43
2017-10-15T02:20:38.411Z,7.30
2017-10-15T02:23:06.515Z,7.55
2017-10-15T02:25:34.591Z,6.75
2017-10-15T02:28:02.676Z,7.80
2017-10-15T02:30:30.785Z,7.20
2017-10-15T02:32:58.869Z,6.40
2017-10-15T02:35:26.939Z,6.12
2017-10-15T02:37:55.038Z,6.25
2017-10-15T02:40:23.879Z,6.70
2017-10-15T02:42:51.975Z,6.55
2017-10-15T02:45:20.049Z,6.30
2017-10-15T02:47:48.149Z,7.00
2017-10-15T02:50:16.986Z,7.05
2017-10-15T02:52:45.497Z,6.22
2017-10-15T02:55:14.913Z,6.20
2017-10-15T02:57:42.899Z,7.47
2017-10-15T03:00:10.999Z,6.20
2017-10-15T03:02:39.838Z,6.78
2017-10-15T03:05:08.680Z,6.97
2017-10-15T03:07:38.275Z,5.85
2017-10-15T03:10:06.367Z,6.70
2017-10-15T03:12:34.451Z,6.57
2017-10-15T03:15:02.543Z,6.50
2017-10-15T03:17:30.620Z,6.97
2017-10-15T03:19:58.726Z,8.30
2017-10-15T03:22:27.570Z,6.57
2017-10-15T03:24:55.662Z,6.35
2017-10-15T03:27:24.525Z,7.05
2017-10-15T03:29:52.998Z,7.22
2017-10-15T03:32:21.467Z,6.05
2017-10-15T03:34:49.575Z,7.57
2017-10-15T03:37:17.650Z,8.00
2017-10-15T03:39:45.727Z,7.07
2017-10-15T03:42:13.818Z,6.95
2017-10-15T03:44:42.674Z,7.25
2017-10-15T03:47:10.747Z,6.97
2017-10-15T03:49:38.841Z,5.93
2017-10-15T03:52:07.707Z,6.72
2017-10-15T03:54:35.783Z,7.18
2017-10-15T03:57:03.855Z,6.95
2017-10-15T03:59:31.963Z,7.00
2017-10-15T04:02:00.042Z,6.70
2017-10-15T04:04:28.506Z,7.25
2017-10-15T04:06:57.739Z,6.03
2017-10-15T04:09:25.838Z,6.72
2017-10-15T04:11:53.919Z,7.22
2017-10-15T04:14:21.994Z,6.45
2017-10-15T04:16:50.099Z,5.65
2017-10-15T04:19:18.943Z,6.20
2017-10-15T04:21:47.020Z,5.85
2017-10-15T04:24:15.118Z,7.22
2017-10-15T04:26:43.963Z,7.22
2017-10-15T04:29:12.051Z,6.80
2017-10-15T04:31:40.158Z,7.00
2017-10-15T04:34:08.999Z,6.82
2017-10-15T04:36:37.075Z,6.50
2017-10-15T04:39:05.167Z,7.32
2017-10-15T04:41:33.666Z,6.90
2017-10-15T04:44:01.738Z,6.28
2017-10-15T04:46:29.838Z,6.18
2017-10-15T04:48:57.912Z,7.60
2017-10-15T04:51:25.987Z,7.25
2017-10-15T04:53:54.090Z,8.32
2017-10-15T04:56:22.171Z,7.57
2017-10-15T04:58:51.750Z,7.60
2017-10-15T05:01:20.615Z,7.00
2017-10-15T05:03:49.454Z,7.20
2017-10-15T05:06:18.295Z,7.37
2017-10-15T05:08:47.162Z,7.95
2017-10-15T05:11:15.254Z,8.40
2017-10-15T05:13:44.087Z,7.18
2017-10-15T05:16:12.179Z,7.95
2017-10-15T05:18:40.292Z,8.15
2017-10-15T05:21:09.138Z,7.68
2017-10-15T05:23:37.215Z,7.07
2017-10-15T05:26:05.306Z,7.50
2017-10-15T05:28:33.379Z,8.45
2017-10-15T05:31:01.482Z,7.25
2017-10-15T05:33:30.911Z,7.93
2017-10-15T05:35:58.895Z,6.80
2017-10-15T05:38:26.978Z,6.97
2017-10-15T05:40:55.051Z,8.18
2017-10-15T05:43:23.139Z,7.87
2017-10-15T05:45:51.215Z,7.25
2017-10-15T05:48:19.299Z,7.37
2017-10-15T05:50:48.139Z,7.82
2017-10-15T05:53:16.227Z,7.28
2017-10-15T05:55:44.299Z,7.65
2017-10-15T05:58:12.391Z,6.87
2017-10-15T06:00:40.879Z,7.47
2017-10-15T06:03:09.747Z,7.78
2017-10-15T06:05:37.823Z,7.28
2017-10-15T06:08:06.294Z,8.27
2017-10-15T06:10:34.402Z,7.68
2017-10-15T06:15:37.387Z,7.37
2017-10-15T06:18:05.476Z,10.25
2017-10-15T06:20:34.315Z,8.77
2017-10-15T06:23:02.419Z,9.88
2017-10-15T06:25:30.519Z,10.00
2017-10-15T06:27:59.387Z,10.02
2017-10-15T06:30:27.475Z,11.18
2017-10-15T06:32:56.358Z,11.40
2017-10-15T06:35:25.203Z,12.48
2017-10-15T06:37:54.845Z,12.93
2017-10-15T06:40:23.319Z,13.68
2017-10-15T06:42:51.852Z,13.43
2017-10-15T06:45:20.323Z,15.25
2017-10-15T06:47:48.411Z,15.40
2017-10-15T06:50:16.514Z,15.68
2017-10-15T06:52:44.621Z,15.70
2017-10-15T06:55:13.466Z,17.98
2017-10-15T06:57:41.979Z,17.75
2017-10-15T07:00:10.062Z,17.70
2017-10-15T07:02:39.290Z,18.15
2017-10-15T07:05:08.163Z,19.15
2017-10-15T07:07:37.015Z,17.70
2017-10-15T07:10:05.139Z,18.35
2017-10-15T07:12:33.235Z,17.00
2017-10-15T07:15:01.375Z,21.35
2017-10-15T07:17:30.278Z,16.85
2017-10-15T07:19:58.362Z,17.35
2017-10-15T07:22:27.223Z,17.42
2017-10-15T07:24:56.107Z,18.62
2017-10-15T07:27:25.054Z,18.00
2017-10-15T07:29:53.938Z,18.23
2017-10-15T07:32:22.782Z,17.40
2017-10-15T07:34:51.650Z,14.90
2017-10-15T07:37:19.755Z,17.42
2017-10-15T07:39:48.630Z,16.48
2017-10-15T07:42:17.482Z,17.70
2017-10-15T07:44:45.582Z,17.42
2017-10-15T07:47:13.675Z,16.98
2017-10-15T07:49:42.551Z,18.35
2017-10-15T07:52:10.639Z,18.60
2017-10-15T07:54:39.510Z,16.33
2017-10-15T07:57:07.994Z,18.35
2017-10-15T07:59:36.098Z,15.57
2017-10-15T08:02:05.739Z,16.87
2017-10-15T08:04:33.849Z,15.32
2017-10-15T08:07:01.934Z,17.08
2017-10-15T08:09:30.799Z,16.50
2017-10-15T08:11:58.911Z,17.65
2017-10-15T08:14:26.999Z,15.52
2017-10-15T08:16:55.119Z,16.20
2017-10-15T08:19:23.202Z,15.43
2017-10-15T08:21:51.683Z,14.73
2017-10-15T08:24:21.307Z,15.35
2017-10-15T08:26:50.158Z,16.20
2017-10-15T08:29:18.245Z,16.85
2017-10-15T08:31:46.346Z,17.27
2017-10-15T08:34:15.209Z,16.05
2017-10-15T08:36:43.314Z,14.93
2017-10-15T08:39:11.799Z,15.60
2017-10-15T08:41:40.299Z,16.50
2017-10-15T08:44:08.387Z,13.70
2017-10-15T08:46:36.890Z,16.90
2017-10-15T08:49:05.008Z,17.95
2017-10-15T08:51:33.859Z,18.12
2017-10-15T08:54:01.947Z,16.20
2017-10-15T08:56:31.575Z,17.37
2017-10-15T08:58:59.665Z,17.77
2017-10-15T09:01:27.755Z,18.15
2017-10-15T09:03:55.871Z,18.77
2017-10-15T09:06:23.954Z,18.55
2017-10-15T09:08:52.835Z,17.85
2017-10-15T09:11:21.339Z,17.35
2017-10-15T09:13:49.443Z,16.98
2017-10-15T09:16:18.331Z,18.75
2017-10-15T09:18:46.487Z,18.00
2017-10-15T09:21:14.591Z,20.05
2017-10-15T09:23:42.711Z,16.87
2017-10-15T09:26:11.563Z,20.00
2017-10-15T09:28:40.050Z,19.12
2017-10-15T09:31:08.204Z,19.25
2017-10-15T09:33:37.063Z,19.37
2017-10-15T09:36:05.167Z,18.45
2017-10-15T09:38:33.245Z,15.98
2017-10-15T09:41:02.118Z,19.20
2017-10-15T09:43:31.021Z,17.20
2017-10-15T09:45:59.095Z,16.92
2017-10-15T09:48:27.203Z,17.60
2017-10-15T09:50:55.318Z,18.52
2017-10-15T09:53:23.802Z,18.15
2017-10-15T09:55:52.712Z,18.77
2017-10-15T09:58:20.820Z,16.45
2017-10-15T10:00:48.915Z,17.62
2017-10-15T10:03:17.766Z,20.60
2017-10-15T10:05:45.879Z,17.20
2017-10-15T10:08:14.359Z,19.12
2017-10-15T10:10:43.263Z,19.35
2017-10-15T10:13:11.364Z,19.10
2017-10-15T10:15:39.483Z,20.37
2017-10-15T10:18:08.350Z,18.67
2017-10-15T10:20:36.454Z,20.98
2017-10-15T10:23:04.950Z,18.77
2017-10-15T10:25:33.043Z,20.48
2017-10-15T10:28:01.190Z,19.12
2017-10-15T10:30:29.287Z,18.62
2017-10-15T10:32:57.395Z,17.98
2017-10-15T10:35:25.478Z,19.33
2017-10-15T10:37:53.582Z,19.00
2017-10-15T10:40:21.686Z,20.65
2017-10-15T10:42:49.779Z,18.95
2017-10-15T10:45:19.407Z,21.60
2017-10-15T10:47:47.487Z,21.20
2017-10-15T10:50:15.606Z,21.42
2017-10-15T10:52:43.724Z,24.45
2017-10-15T10:55:12.190Z,25.50
2017-10-15T10:57:40.315Z,25.23
2017-10-15T11:00:08.403Z,27.02
2017-10-15T11:02:38.019Z,30.85
2017-10-15T11:05:06.131Z,29.90
2017-10-15T11:07:34.231Z,28.05
2017-10-15T11:10:02.314Z,27.30
2017-10-15T11:12:31.190Z,28.08
2017-10-15T11:15:00.804Z,28.55
2017-10-15T11:17:28.932Z,31.08
2017-10-15T11:19:57.011Z,31.98
2017-10-15T11:22:25.131Z,34.30
2017-10-15T11:24:53.343Z,32.33
2017-10-15T11:27:21.434Z,37.92
2017-10-15T11:29:50.816Z,37.17
2017-10-15T11:32:19.622Z,35.47
2017-10-15T11:34:47.714Z,31.85
2017-10-15T11:37:16.607Z,33.20
2017-10-15T11:39:44.683Z,32.67
2017-10-15T11:42:13.921Z,32.42
2017-10-15T11:44:42.107Z,35.83
2017-10-15T11:47:11.690Z,35.33
2017-10-15T11:49:39.776Z,39.88
2017-10-15T11:52:08.651Z,39.75
2017-10-15T11:54:36.810Z,37.80
2017-10-15T11:57:04.912Z,37.00
2017-10-15T11:59:32.990Z,41.47
2017-10-15T12:02:01.094Z,37.03
2017-10-15T12:04:30.514Z,35.22
2017-10-15T12:06:59.751Z,37.53
2017-10-15T12:09:28.611Z,38.53
2017-10-15T12:11:57.483Z,38.75
2017-10-15T12:14:25.594Z,37.67
2017-10-15T12:16:54.085Z,37.25
2017-10-15T12:19:22.167Z,39.72
2017-10-15T12:21:50.262Z,37.65
2017-10-15T12:24:19.159Z,36.90
2017-10-15T12:26:47.258Z,38.08
2017-10-15T12:29:16.126Z,39.53
2017-10-15T12:31:44.215Z,37.08
2017-10-15T12:34:12.323Z,35.97
2017-10-15T12:36:40.406Z,35.35
2017-10-15T12:39:08.519Z,32.90
2017-10-15T12:41:36.634Z,32.65
2017-10-15T12:44:05.523Z,32.05
2017-10-15T12:46:33.607Z,34.95
2017-10-15T12:49:01.718Z,34.90
2017-10-15T12:51:29.807Z,36.13
2017-10-15T12:53:57.895Z,35.72
2017-10-15T12:56:27.160Z,36.83
2017-10-15T12:58:55.254Z,38.20
2017-10-15T13:01:23.363Z,36.80
2017-10-15T13:03:51.474Z,34.60
2017-10-15T13:06:20.338Z,34.60
2017-10-15T13:08:48.439Z,36.13
2017-10-15T13:11:16.535Z,33.00
2017-10-15T13:13:44.675Z,33.60
2017-10-15T13:16:13.166Z,35.47
2017-10-15T13:18:41.223Z,33.60
2017-10-15T13:21:09.743Z,34.20
2017-10-15T13:23:37.828Z,35.20
2017-10-15T13:26:06.694Z,36.70
2017-10-15T13:28:34.886Z,38.80
2017-10-15T13:31:02.991Z,34.70
2017-10-15T13:33:31.094Z,34.20
2017-10-15T13:36:00.541Z,34.42
2017-10-15T13:38:29.329Z,33.78
2017-10-15T13:40:58.844Z,31.15
2017-10-15T13:43:28.186Z,30.90
2017-10-15T13:45:56.233Z,33.90
2017-10-15T13:48:25.070Z,30.83
2017-10-15T13:50:53.926Z,30.48
2017-10-15T13:53:22.022Z,33.80
2017-10-15T13:55:50.870Z,34.15
2017-10-15T13:58:19.026Z,35.10
2017-10-15T14:00:47.531Z,35.40
2017-10-15T14:03:15.618Z,32.55
2017-10-15T14:05:43.726Z,29.85
2017-10-15T14:08:12.212Z,30.33
2017-10-15T14:10:40.332Z,32.08
2017-10-15T14:13:08.419Z,31.65
2017-10-15T14:15:36.528Z,28.83
2017-10-15T14:18:04.626Z,29.65
2017-10-15T14:20:34.234Z,31.37
2017-10-15T14:23:03.091Z,33.38
2017-10-15T14:25:31.221Z,33.85
2017-10-15T14:28:00.062Z,33.38
2017-10-15T14:30:28.147Z,33.17
2017-10-15T14:32:56.251Z,37.15
2017-10-15T14:35:24.375Z,31.83
2017-10-15T14:37:52.463Z,32.35
2017-10-15T14:40:20.943Z,32.63
2017-10-15T14:42:49.062Z,30.85
2017-10-15T14:45:17.894Z,31.98
2017-10-15T14:47:46.007Z,31.15
2017-10-15T14:50:14.863Z,34.50
2017-10-15T14:52:42.958Z,31.80
2017-10-15T14:55:11.468Z,31.50
2017-10-15T14:57:40.323Z,30.20
2017-10-15T15:00:09.203Z,30.90
2017-10-15T15:02:37.298Z,32.03
2017-10-15T15:05:06.155Z,36.05
2017-10-15T15:07:34.263Z,32.42
2017-10-15T15:10:03.147Z,42.65
2017-10-15T15:12:32.060Z,31.50
2017-10-15T15:15:00.131Z,29.98
2017-10-15T15:17:28.264Z,30.00
2017-10-15T15:19:57.111Z,31.37
2017-10-15T15:22:25.200Z,33.17
2017-10-15T15:24:53.309Z,30.62
2017-10-15T15:27:21.423Z,31.98
2017-10-15T15:29:49.510Z,30.37
2017-10-15T15:32:17.620Z,32.22
2017-10-15T15:34:45.743Z,31.37
2017-10-15T15:37:13.854Z,31.85
2017-10-15T15:39:41.971Z,34.35
2017-10-15T15:42:10.054Z,33.35
2017-10-15T15:44:38.168Z,32.22
2017-10-15T15:47:08.447Z,31.62
2017-10-15T15:49:36.530Z,30.83
2017-10-15T15:52:04.643Z,32.20
2017-10-15T15:54:34.106Z,31.62
2017-10-15T15:57:02.108Z,32.53
2017-10-15T15:59:30.944Z,35.35
2017-10-15T16:01:59.819Z,32.03
2017-10-15T16:04:28.681Z,32.08
2017-10-15T16:06:56.804Z,29.02
2017-10-15T16:09:25.646Z,30.90
2017-10-15T16:11:53.806Z,29.20
2017-10-15T16:14:22.274Z,25.37
2017-10-15T16:16:50.363Z,28.38
2017-10-15T16:19:18.449Z,27.87
2017-10-15T16:21:46.570Z,25.23
2017-10-15T16:24:14.679Z,25.42
2017-10-15T16:26:43.597Z,24.92
2017-10-15T16:29:11.691Z,24.55
2017-10-15T16:31:40.542Z,24.12
2017-10-15T16:34:08.751Z,22.13
2017-10-15T16:36:37.624Z,24.40
2017-10-15T16:39:05.742Z,23.48
2017-10-15T16:41:33.836Z,25.55
2017-10-15T16:44:01.960Z,23.75
2017-10-15T16:46:30.091Z,23.00
2017-10-15T16:48:58.174Z,21.92
2017-10-15T16:51:26.298Z,22.20
2017-10-15T16:53:54.396Z,21.05
2017-10-15T16:56:23.643Z,22.70
2017-10-15T16:58:52.155Z,23.95
2017-10-15T17:01:20.238Z,24.42
2017-10-15T17:03:48.363Z,23.17
2017-10-15T17:06:17.219Z,24.17
2017-10-15T17:08:45.309Z,22.83
2017-10-15T17:11:14.184Z,24.85
2017-10-15T17:13:42.286Z,25.12
2017-10-15T17:16:11.500Z,24.02
2017-10-15T17:18:40.375Z,24.83
2017-10-15T17:21:08.466Z,23.95
2017-10-15T17:23:37.696Z,24.30
2017-10-15T17:26:06.938Z,26.48
2017-10-15T17:28:36.575Z,27.00
2017-10-15T17:31:05.434Z,25.65
2017-10-15T17:33:34.311Z,25.80
2017-10-15T17:36:02.818Z,27.02
2017-10-15T17:38:30.911Z,25.42
2017-10-15T17:40:59.800Z,26.27
2017-10-15T17:43:29.274Z,28.10
2017-10-15T17:45:58.178Z,26.42
2017-10-15T17:48:27.062Z,28.87
2017-10-15T17:50:55.214Z,26.70
2017-10-15T17:53:23.694Z,25.92
2017-10-15T17:55:51.792Z,27.10
2017-10-15T17:58:21.386Z,25.35
2017-10-15T18:00:50.274Z,26.33
2017-10-15T18:03:18.382Z,28.98
2017-10-15T18:05:47.239Z,26.08
2017-10-15T18:08:15.330Z,28.38
2017-10-15T18:10:43.461Z,27.02
2017-10-15T18:13:11.564Z,27.58
2017-10-15T18:15:39.660Z,27.87
2017-10-15T18:18:09.255Z,25.92
2017-10-15T18:20:38.876Z,27.10
2017-10-15T18:23:06.978Z,25.65
2017-10-15T18:25:35.103Z,27.95
2017-10-15T18:28:04.545Z,25.83
2017-10-15T18:30:33.344Z,26.05
2017-10-15T18:33:01.455Z,24.92
2017-10-15T18:35:29.555Z,27.25
2017-10-15T18:37:57.645Z,26.48
2017-10-15T18:40:26.521Z,26.75
2017-10-15T18:42:54.636Z,25.95
2017-10-15T18:45:22.743Z,26.50
2017-10-15T18:47:50.861Z,24.58
2017-10-15T18:50:19.757Z,24.63
2017-10-15T18:52:50.068Z,24.70
2017-10-15T18:55:18.646Z,24.73
2017-10-15T18:57:46.752Z,25.02
2017-10-15T19:00:14.870Z,24.87
2017-10-15T19:02:42.959Z,22.70
2017-10-15T19:05:11.815Z,25.55
2017-10-15T19:07:39.930Z,25.58
2017-10-15T19:12:44.721Z,26.23
2017-10-15T19:15:12.811Z,22.80
2017-10-15T19:17:40.912Z,26.23
2017-10-15T19:20:09.030Z,23.60
2017-10-15T19:22:37.121Z,24.05
2017-10-15T19:25:06.591Z,24.33
2017-10-15T19:27:34.995Z,24.15
2017-10-15T19:30:03.091Z,23.42
2017-10-15T19:32:31.196Z,22.92
2017-10-15T19:34:59.323Z,25.95
2017-10-15T19:37:27.418Z,25.20
2017-10-15T19:39:55.509Z,23.25
2017-10-15T19:42:23.612Z,22.73
2017-10-15T19:44:51.798Z,21.92
2017-10-15T19:47:20.323Z,23.60
2017-10-15T19:49:49.777Z,21.87
2017-10-15T19:52:18.591Z,24.92
2017-10-15T19:54:48.206Z,24.63
2017-10-15T19:57:17.660Z,24.95
2017-10-15T19:59:45.687Z,23.00
2017-10-15T20:02:15.122Z,24.85
2017-10-15T20:04:43.127Z,23.62
2017-10-15T20:07:12.598Z,23.12
2017-10-15T20:09:40.599Z,24.70
2017-10-15T20:12:09.095Z,24.40
2017-10-15T20:14:37.963Z,24.50
2017-10-15T20:17:07.061Z,25.00
2017-10-15T20:19:35.231Z,24.67
2017-10-15T20:22:03.325Z,23.85
2017-10-15T20:24:31.973Z,24.30
2017-10-15T20:27:00.827Z,23.40
2017-10-15T20:29:28.930Z,24.52
2017-10-15T20:31:57.799Z,23.85
2017-10-15T20:34:25.950Z,24.45
2017-10-15T20:36:54.038Z,24.40
2017-10-15T20:39:22.128Z,26.15
2017-10-15T20:41:50.258Z,26.98
2017-10-15T20:44:18.349Z,26.08
2017-10-15T20:46:46.828Z,23.80
2017-10-15T20:49:15.714Z,23.90
2017-10-15T20:51:44.569Z,27.50
2017-10-15T20:54:12.662Z,26.15
2017-10-15T20:56:40.820Z,26.02
2017-10-15T20:59:08.886Z,29.17
2017-10-15T21:01:37.378Z,27.73
2017-10-15T21:04:05.528Z,26.98
2017-10-15T21:06:33.603Z,29.90
2017-10-15T21:09:03.242Z,30.52
2017-10-15T21:11:32.192Z,29.15
2017-10-15T21:14:00.275Z,32.08
2017-10-15T21:16:29.134Z,30.40
2017-10-15T21:18:57.246Z,30.80
2017-10-15T21:21:27.791Z,31.00
2017-10-15T21:23:55.900Z,27.80
2017-10-15T21:26:25.507Z,28.92
2017-10-15T21:28:53.627Z,30.80
2017-10-15T21:31:22.490Z,27.00
2017-10-15T21:33:50.583Z,27.02
2017-10-15T21:36:18.702Z,28.98
2017-10-15T21:38:46.783Z,29.10
2017-10-15T21:41:14.900Z,27.17
2017-10-15T21:43:43.760Z,25.98
2017-10-15T21:46:11.862Z,26.05
2017-10-15T21:48:40.750Z,29.33
2017-10-15T21:51:09.970Z,31.12
2017-10-15T21:53:38.073Z,31.30
2017-10-15T21:56:06.199Z,30.73
2017-10-15T21:58:35.058Z,31.23
2017-10-15T22:01:03.170Z,29.98
2017-10-15T22:03:31.381Z,30.60
2017-10-15T22:05:59.467Z,32.22
2017-10-15T22:08:27.620Z,29.67
2017-10-15T22:10:55.708Z,29.10
2017-10-15T22:13:23.799Z,29.83
2017-10-15T22:15:51.902Z,28.85
2017-10-15T22:18:38.475Z,26.92
2017-10-15T22:21:12.283Z,29.23
2017-10-15T22:23:40.371Z,24.48
2017-10-15T22:26:08.472Z,25.00
2017-10-15T22:28:38.091Z,26.87
2017-10-15T22:31:06.357Z,26.35
2017-10-15T22:33:34.535Z,23.08
2017-10-15T22:36:02.635Z,25.30
2017-10-15T22:38:30.749Z,22.35
2017-10-15T22:40:58.843Z,23.90
2017-10-15T22:43:27.700Z,21.42
2017-10-15T22:45:55.828Z,21.98
2017-10-15T22:48:23.931Z,22.85
2017-10-15T22:50:52.051Z,23.02
2017-10-15T22:53:20.164Z,23.62
2017-10-15T22:55:48.270Z,23.45
2017-10-15T22:58:16.384Z,25.25
2017-10-15T23:00:44.485Z,25.20
2017-10-15T23:03:12.602Z,29.25
2017-10-15T23:05:42.195Z,29.67
2017-10-15T23:08:10.289Z,26.60
2017-10-15T23:10:38.430Z,27.05
2017-10-15T23:13:07.293Z,25.08
2017-10-15T23:15:36.519Z,24.52
2017-10-15T23:18:05.379Z,26.17
2017-10-15T23:20:33.500Z,25.77
2017-10-15T23:23:02.375Z,27.20
2017-10-15T23:25:31.830Z,22.83
2017-10-15T23:28:00.413Z,27.10
2017-10-15T23:30:28.524Z,26.70
2017-10-15T23:32:56.610Z,25.05
2017-10-15T23:35:24.735Z,23.75
2017-10-15T23:37:52.827Z,23.65
2017-10-15T23:40:20.914Z,26.02
2017-10-15T23:42:49.034Z,26.50
2017-10-15T23:45:17.129Z,25.10
2017-10-15T23:47:45.254Z,25.00
2017-10-15T23:50:13.345Z,24.60
2017-10-15T23:52:41.459Z,25.88
2017-10-15T23:55:09.575Z,23.42
2017-10-15T23:57:38.807Z,25.12
